Главная страница
METAR-TAF:

METAR-TAF

Аэропорты :

Sveg, Швеция

широта: 62-02-52N, долгота: 014-25-22E, высота над уровнем моря: 359 м

Текущие метеонаблюдения

Эта сводка был подготовлена 30 минут назад, в 22:50 UTC
Ветер 2 Узел от западный-юго-западный
Температура -4°C
Влажность 80%
Давление 1005 hPa
Видимость 10 км и более

METAR: ESND 072250Z AUTO 24002KT 9999 FEW072/// M04/M07 Q1005

Время: 01:20 (23:20 UTC)


TAF: отсутствует

Метеонаблюдения и прогнозы для более 4000 аэропортов (сводки METAR и TAF).

Имеющиеся станции представлены на карте желтыми и красными точками.

Чтобы увидеть название станции, наведите на нее мышь.

Затем щелкните, чтобы увидеть метеонаблюдения и метеопрогнозы.

Управление картой: чтобы увеличить масштаб, щелкните зеленые кнопки с черным крестиком; чтобы уменьшить масштаб, щелкните зеленую кнопку с тире; для просмотра соседних карт щелкайте зеленые стрелки.


METAR-TAF: